Time;durP1;ratioP1;P1;durP2;ratioP2;P2;SDS_P1;SDS_P2;PMS_P1;PMS_P2;Temp;Humidity;BMP_temperature;BMP_pressure;BME280_temperature;BME280_humidity;BME280_pressure;Samples;Min_cycle;Max_cycle;Signal;HPM_P1;HPM_P2
2022/10/26 00:01:49;;;;;;;8.00;3.97;;;11.60;99.90;;;;;;4859829;29;20187;-87
2022/10/26 00:04:15;;;;;;;6.67;4.10;;;11.70;99.90;;;;;;4859484;29;20298;-87
2022/10/26 00:06:41;;;;;;;7.93;4.03;;;11.70;99.90;;;;;;4874617;29;20301;-86
2022/10/26 00:09:07;;;;;;;7.00;4.30;;;11.70;99.90;;;;;;4844432;29;20188;-87
2022/10/26 00:11:33;;;;;;;5.10;4.20;;;11.60;99.90;;;;;;4844466;29;20186;-87
2022/10/26 00:13:58;;;;;;;11.47;4.77;;;11.60;99.90;;;;;;4844076;29;20265;-87
2022/10/26 00:16:26;;;;;;;5.90;4.13;;;11.60;99.90;;;;;;4844288;29;20218;-86
2022/10/26 00:18:52;;;;;;;8.80;4.20;;;11.60;99.90;;;;;;4844079;29;20222;-86
2022/10/26 00:21:18;;;;;;;7.10;4.30;;;11.50;99.90;;;;;;4844543;29;20223;-87
2022/10/26 00:23:44;;;;;;;6.77;4.53;;;11.60;99.90;;;;;;4843979;29;20263;-86
2022/10/26 00:26:10;;;;;;;6.20;4.27;;;11.60;99.90;;;;;;4843988;29;20270;-86
2022/10/26 00:28:37;;;;;;;6.83;4.13;;;11.60;99.90;;;;;;4843867;29;20186;-86
2022/10/26 00:31:11;;;;;;;6.70;4.10;;;11.60;99.90;;;;;;4844091;29;20180;-86
2022/10/26 00:33:37;;;;;;;6.70;4.13;;;11.70;99.90;;;;;;4843843;29;20201;-86
2022/10/26 00:36:03;;;;;;;5.50;4.10;;;11.70;99.90;;;;;;4859378;29;20207;-86
2022/10/26 00:38:30;;;;;;;8.30;4.23;;;11.80;99.90;;;;;;4858507;29;20257;-86
2022/10/26 00:40:56;;;;;;;6.93;3.60;;;11.80;99.90;;;;;;4859270;29;20286;-86
2022/10/26 00:43:21;;;;;;;9.83;4.00;;;11.80;99.90;;;;;;4859440;29;20295;-86
2022/10/26 00:45:54;;;;;;;4.83;3.97;;;11.80;99.90;;;;;;4859234;29;20617;-86
2022/10/26 00:48:28;;;;;;;8.37;4.03;;;11.70;99.90;;;;;;4859139;29;20188;-86
2022/10/26 00:50:57;;;;;;;7.10;3.80;;;11.70;99.90;;;;;;4859526;29;20182;-86
2022/10/26 00:53:23;;;;;;;5.60;3.40;;;11.60;99.90;;;;;;4859509;29;20553;-87
2022/10/26 00:55:51;;;;;;;4.63;3.47;;;11.60;99.90;;;;;;4859403;29;20255;-87
2022/10/26 00:58:19;;;;;;;5.83;3.53;;;11.50;99.90;;;;;;4859266;29;20193;-86
2022/10/26 01:00:45;;;;;;;4.80;3.70;;;11.60;99.90;;;;;;4859150;29;20186;-86
2022/10/26 01:03:11;;;;;;;6.53;3.83;;;11.60;99.90;;;;;;4858998;29;20271;-86
2022/10/26 01:05:41;;;;;;;5.27;3.43;;;11.60;99.90;;;;;;4859326;29;20214;-86
2022/10/26 01:08:08;;;;;;;6.07;3.70;;;11.60;99.90;;;;;;4858765;29;20224;-86
2022/10/26 01:10:35;;;;;;;7.47;4.27;;;11.70;99.90;;;;;;4858947;29;20183;-86
2022/10/26 01:13:02;;;;;;;7.17;4.60;;;11.60;99.90;;;;;;4858838;29;20201;-86
2022/10/26 01:15:56;;;;;;;6.50;4.20;;;11.60;99.90;;;;;;4859279;29;20235;-86
2022/10/26 01:18:29;;;;;;;5.03;3.70;;;11.50;99.90;;;;;;4858978;29;20194;-86
2022/10/26 01:21:03;;;;;;;6.97;4.20;;;11.50;99.90;;;;;;4858981;29;20192;-86
2022/10/26 01:23:44;;;;;;;5.40;4.30;;;11.50;99.90;;;;;;4858899;29;20216;-86
2022/10/26 01:26:43;;;;;;;7.37;4.57;;;11.40;99.90;;;;;;4858905;29;20237;-86
2022/10/26 01:29:16;;;;;;;6.07;4.37;;;11.50;99.90;;;;;;4858952;29;20192;-86
2022/10/26 01:32:11;;;;;;;8.40;4.47;;;11.50;99.90;;;;;;4858741;29;20178;-86
2022/10/26 01:35:09;;;;;;;6.80;4.13;;;11.60;99.90;;;;;;4858801;29;20203;-86
2022/10/26 01:37:43;;;;;;;5.10;4.30;;;11.60;99.90;;;;;;4850745;29;20191;-86
2022/10/26 01:40:14;;;;;;;5.87;4.23;;;11.60;99.90;;;;;;4858162;29;20323;-86
2022/10/26 01:42:43;;;;;;;3.80;3.47;;;11.60;99.90;;;;;;4858869;29;20199;-86
2022/10/26 01:45:11;;;;;;;9.73;4.47;;;11.60;99.90;;;;;;4858599;29;20186;-86
2022/10/26 01:47:38;;;;;;;7.37;4.23;;;11.60;99.90;;;;;;4858417;29;20277;-86
2022/10/26 01:50:06;;;;;;;7.07;4.33;;;11.60;99.90;;;;;;4860391;29;20203;-86
2022/10/26 01:52:32;;;;;;;7.00;4.33;;;11.70;99.90;;;;;;4861809;29;20272;-86
2022/10/26 01:55:03;;;;;;;5.07;4.03;;;11.60;99.90;;;;;;4862520;29;20220;-86
2022/10/26 01:57:34;;;;;;;5.93;3.70;;;11.60;99.90;;;;;;4861880;29;20183;-86
2022/10/26 02:00:10;;;;;;;5.33;4.07;;;11.60;99.90;;;;;;4846256;29;20184;-87
2022/10/26 02:03:21;;;;;;;7.90;3.70;;;11.60;99.90;;;;;;4846617;29;20241;-86
2022/10/26 02:06:05;;;;;;;6.30;4.03;;;11.50;99.90;;;;;;4839086;29;20219;-86
2022/10/26 02:08:47;;;;;;;7.10;3.53;;;11.50;99.90;;;;;;4861673;29;20193;-86
2022/10/26 02:11:30;;;;;;;6.07;3.93;;;11.50;99.90;;;;;;4861822;29;20186;-86
2022/10/26 02:14:11;;;;;;;6.97;4.30;;;11.50;99.90;;;;;;4861564;29;20211;-86
2022/10/26 02:16:39;;;;;;;6.33;4.07;;;11.50;99.90;;;;;;4861552;29;20184;-86
2022/10/26 02:19:09;;;;;;;6.03;4.37;;;11.50;99.90;;;;;;4861488;29;20203;-86
2022/10/26 02:21:39;;;;;;;7.70;3.97;;;11.40;99.90;;;;;;4861628;29;20190;-86
2022/10/26 02:24:09;;;;;;;5.57;4.17;;;11.40;99.90;;;;;;4861417;29;20205;-86
2022/10/26 02:26:36;;;;;;;6.33;3.87;;;11.50;99.90;;;;;;4861346;29;20305;-86
2022/10/26 02:29:06;;;;;;;6.03;3.60;;;11.50;99.90;;;;;;4861240;29;20188;-86
2022/10/26 02:31:34;;;;;;;5.23;4.10;;;11.40;99.90;;;;;;4861335;29;20180;-86
2022/10/26 02:34:04;;;;;;;6.03;3.50;;;11.40;99.90;;;;;;4845817;29;20206;-86
2022/10/26 02:36:33;;;;;;;6.53;3.30;;;11.40;99.90;;;;;;4846127;29;20265;-86
2022/10/26 02:39:02;;;;;;;4.90;3.27;;;11.40;99.90;;;;;;4861018;29;20189;-86
2022/10/26 02:41:29;;;;;;;8.30;3.73;;;11.50;99.90;;;;;;4846149;29;20196;-86
2022/10/26 02:44:26;;;;;;;8.40;3.43;;;11.50;99.90;;;;;;4845506;29;20212;-86
2022/10/26 02:46:54;;;;;;;4.40;3.63;;;11.40;99.90;;;;;;4860547;29;20225;-86
2022/10/26 02:49:20;;;;;;;5.77;3.60;;;11.40;99.90;;;;;;4861003;29;20186;-86
2022/10/26 02:52:01;;;;;;;4.40;3.40;;;11.40;99.90;;;;;;4861026;29;20190;-86
2022/10/26 02:54:55;;;;;;;6.87;3.63;;;11.40;99.90;;;;;;4861176;29;20277;-86
2022/10/26 02:57:32;;;;;;;4.90;3.53;;;11.50;99.90;;;;;;4860730;29;20183;-86
2022/10/26 02:59:58;;;;;;;5.03;4.03;;;11.50;99.90;;;;;;4860917;29;20175;-86
2022/10/26 03:02:25;;;;;;;5.57;3.90;;;11.60;99.90;;;;;;4859960;29;20208;-86
2022/10/26 03:04:52;;;;;;;5.27;4.10;;;11.60;99.90;;;;;;4861152;29;20191;-86
2022/10/26 03:07:22;;;;;;;6.47;3.70;;;11.60;99.90;;;;;;4860454;29;20211;-86
2022/10/26 03:09:48;;;;;;;7.50;3.80;;;11.60;99.90;;;;;;4845623;29;20633;-86
2022/10/26 03:12:14;;;;;;;6.37;4.00;;;11.60;99.90;;;;;;4845132;29;20239;-86
2022/10/26 03:14:40;;;;;;;6.17;3.30;;;11.60;99.90;;;;;;4845338;29;20182;-86
2022/10/26 03:17:06;;;;;;;6.23;4.20;;;11.60;99.90;;;;;;4845404;29;20190;-86
2022/10/26 03:19:32;;;;;;;6.60;4.03;;;11.60;99.90;;;;;;4845288;29;20195;-86
2022/10/26 03:21:58;;;;;;;9.07;4.57;;;11.60;99.90;;;;;;4845033;29;20191;-86
2022/10/26 03:24:24;;;;;;;8.33;4.40;;;11.50;99.90;;;;;;4860562;29;20254;-86
2022/10/26 03:26:50;;;;;;;8.20;4.50;;;11.50;99.90;;;;;;4844731;29;20242;-86
2022/10/26 03:29:16;;;;;;;8.07;4.33;;;11.50;99.90;;;;;;4860484;29;20238;-86
2022/10/26 03:31:42;;;;;;;7.33;3.90;;;11.60;99.90;;;;;;4860225;29;20354;-86
2022/10/26 03:34:07;;;;;;;7.00;3.70;;;11.50;99.90;;;;;;4860096;29;20211;-86
2022/10/26 03:36:33;;;;;;;5.23;3.90;;;11.50;99.90;;;;;;4844733;29;20186;-86
2022/10/26 03:38:59;;;;;;;5.33;3.50;;;11.60;99.90;;;;;;4844839;29;20196;-86
2022/10/26 03:41:25;;;;;;;5.00;3.90;;;11.60;99.90;;;;;;4860373;29;20199;-86
2022/10/26 03:43:51;;;;;;;6.03;4.00;;;11.60;99.90;;;;;;4856404;29;20765;-86
2022/10/26 03:46:17;;;;;;;6.07;4.43;;;11.60;99.90;;;;;;4844556;29;20213;-86
2022/10/26 03:48:57;;;;;;;5.37;3.83;;;11.70;99.90;;;;;;4844341;29;20218;-86
2022/10/26 03:51:30;;;;;;;5.97;3.73;;;11.70;99.90;;;;;;4859896;29;20216;-86
2022/10/26 03:53:57;;;;;;;9.67;4.30;;;11.70;99.90;;;;;;4844495;29;20327;-86
2022/10/26 03:56:23;;;;;;;5.80;3.87;;;11.70;99.90;;;;;;4859957;29;20197;-86
2022/10/26 03:58:49;;;;;;;10.83;4.17;;;11.80;99.90;;;;;;4859730;29;20251;-87
2022/10/26 04:01:15;;;;;;;9.60;3.87;;;11.80;99.90;;;;;;4843708;29;20190;-86
2022/10/26 04:03:50;;;;;;;9.33;4.33;;;11.90;99.90;;;;;;4859515;29;20266;-86
2022/10/26 04:06:16;;;;;;;7.40;4.20;;;11.90;99.90;;;;;;4859836;29;20203;-86
2022/10/26 04:08:41;;;;;;;4.80;3.80;;;12.00;99.90;;;;;;4852309;29;20235;-86
2022/10/26 04:11:07;;;;;;;6.93;4.20;;;11.90;99.90;;;;;;4841171;29;20189;-86
2022/10/26 04:13:33;;;;;;;5.70;3.60;;;11.90;99.90;;;;;;4857618;29;20670;-86
2022/10/26 04:15:59;;;;;;;5.83;4.30;;;11.90;99.90;;;;;;4859265;29;20242;-86
2022/10/26 04:18:25;;;;;;;6.53;3.77;;;11.90;99.90;;;;;;4859682;29;20174;-86
2022/10/26 04:20:51;;;;;;;4.37;3.40;;;11.90;99.90;;;;;;4859577;29;20194;-86
2022/10/26 04:23:18;;;;;;;6.53;3.73;;;11.80;99.90;;;;;;4859312;29;20384;-86
2022/10/26 04:25:49;;;;;;;5.40;3.67;;;11.80;99.90;;;;;;4858942;29;20301;-86
2022/10/26 04:28:15;;;;;;;6.90;4.07;;;11.80;99.90;;;;;;4844115;29;20190;-86
2022/10/26 04:30:41;;;;;;;6.80;4.20;;;11.80;99.90;;;;;;4859514;29;20182;-86
2022/10/26 04:33:07;;;;;;;7.20;5.50;;;11.80;99.90;;;;;;4859234;29;20201;-86
2022/10/26 04:35:33;;;;;;;8.83;5.10;;;11.80;99.90;;;;;;4844001;29;20229;-86
2022/10/26 04:38:03;;;;;;;5.80;4.73;;;11.80;99.90;;;;;;4859177;29;20216;-86
2022/10/26 04:40:31;;;;;;;5.87;4.60;;;11.80;99.90;;;;;;4859701;29;20632;-86
2022/10/26 04:42:57;;;;;;;7.40;4.50;;;11.80;99.90;;;;;;4859405;29;20271;-86
2022/10/26 04:45:24;;;;;;;6.37;4.20;;;11.80;99.90;;;;;;4859204;29;20183;-87
2022/10/26 04:48:04;;;;;;;9.23;4.63;;;11.80;99.90;;;;;;4843605;29;20187;-87
2022/10/26 04:50:31;;;;;;;9.43;4.47;;;11.80;99.90;;;;;;4859220;29;20182;-87
2022/10/26 04:52:57;;;;;;;7.30;4.50;;;11.70;99.90;;;;;;4843781;29;20256;-86
2022/10/26 04:55:23;;;;;;;6.50;4.03;;;11.80;99.90;;;;;;4859123;29;20182;-86
2022/10/26 04:57:48;;;;;;;7.03;4.30;;;11.80;99.90;;;;;;4858714;29;20256;-87
2022/10/26 05:00:33;;;;;;;5.77;3.90;;;11.70;99.90;;;;;;4858917;29;20179;-87
2022/10/26 05:03:04;;;;;;;6.90;4.03;;;11.70;99.90;;;;;;4859122;29;20236;-87
2022/10/26 05:05:32;;;;;;;7.53;4.10;;;11.60;99.90;;;;;;4860315;29;20180;-87
2022/10/26 05:07:58;;;;;;;6.27;4.20;;;11.60;99.90;;;;;;4858926;29;20187;-87
2022/10/26 05:10:25;;;;;;;6.77;4.27;;;11.50;99.90;;;;;;4858493;29;20182;-87
2022/10/26 05:12:53;;;;;;;5.03;3.70;;;11.50;99.90;;;;;;4859221;29;20343;-86
2022/10/26 05:15:18;;;;;;;4.50;3.97;;;11.50;99.90;;;;;;4858893;29;20191;-87
2022/10/26 05:17:45;;;;;;;6.97;4.40;;;11.40;99.90;;;;;;4843379;29;20200;-86
2022/10/26 05:20:12;;;;;;;5.77;4.33;;;11.40;99.90;;;;;;4858946;29;20196;-87
2022/10/26 05:22:41;;;;;;;7.43;4.37;;;11.40;99.90;;;;;;4858615;29;20206;-86
2022/10/26 05:25:08;;;;;;;6.27;4.13;;;11.30;99.90;;;;;;4845548;29;20269;-87
2022/10/26 05:27:34;;;;;;;8.93;4.23;;;11.30;99.90;;;;;;4862333;29;20292;-87
2022/10/26 05:29:59;;;;;;;5.43;4.50;;;11.30;99.90;;;;;;4862488;29;20268;-86
2022/10/26 05:32:25;;;;;;;7.50;4.60;;;11.20;99.90;;;;;;4846927;29;20241;-87
2022/10/26 05:34:51;;;;;;;6.83;4.57;;;11.20;99.90;;;;;;4846931;29;20202;-86
2022/10/26 05:37:17;;;;;;;11.43;4.50;;;11.20;99.90;;;;;;4863634;29;20679;-87
2022/10/26 05:39:43;;;;;;;6.97;4.67;;;11.20;99.90;;;;;;4862762;29;20278;-87
2022/10/26 05:42:08;;;;;;;6.03;4.70;;;11.20;99.90;;;;;;4874845;29;20217;-87
2022/10/26 05:44:34;;;;;;;6.50;4.73;;;11.30;99.90;;;;;;4871085;29;20223;-87
2022/10/26 05:47:00;;;;;;;6.63;4.27;;;11.20;99.90;;;;;;4862569;29;20210;-87
2022/10/26 05:49:26;;;;;;;5.40;4.30;;;11.30;99.90;;;;;;4862033;29;20274;-87
2022/10/26 05:51:52;;;;;;;4.67;4.23;;;11.30;99.90;;;;;;4861926;29;20190;-87
2022/10/26 05:54:18;;;;;;;5.27;4.27;;;11.30;99.90;;;;;;4862148;29;20205;-87
2022/10/26 05:56:44;;;;;;;7.37;4.80;;;11.40;99.90;;;;;;4861773;29;20246;-87
2022/10/26 05:59:12;;;;;;;5.83;4.73;;;11.40;99.90;;;;;;4862085;29;20219;-87
2022/10/26 06:02:03;;;;;;;4.83;4.23;;;11.50;99.90;;;;;;4861269;29;20240;-87
2022/10/26 06:04:42;;;;;;;7.67;4.47;;;11.60;99.90;;;;;;4862130;29;20215;-87
2022/10/26 06:07:13;;;;;;;8.20;4.50;;;11.60;99.90;;;;;;4862771;29;20219;-87
2022/10/26 06:09:40;;;;;;;7.00;5.60;;;11.70;99.90;;;;;;4843321;29;20197;-87
2022/10/26 06:12:07;;;;;;;6.60;5.30;;;11.70;99.90;;;;;;4827841;29;20227;-87
2022/10/26 06:14:34;;;;;;;8.27;5.10;;;11.70;99.90;;;;;;4827988;29;20222;-87
2022/10/26 06:17:39;;;;;;;7.43;5.03;;;11.70;99.90;;;;;;4843905;29;20184;-87
2022/10/26 06:20:32;;;;;;;7.57;4.60;;;11.80;99.90;;;;;;4843121;29;20184;-87
2022/10/26 06:23:28;;;;;;;10.73;4.53;;;11.80;99.90;;;;;;4843312;29;20222;-87
2022/10/26 06:26:05;;;;;;;4.90;3.93;;;11.80;99.90;;;;;;4842732;29;20688;-87
2022/10/26 06:28:46;;;;;;;6.40;4.33;;;11.80;99.90;;;;;;4842859;29;20268;-87
2022/10/26 06:31:13;;;;;;;6.43;4.27;;;11.70;99.90;;;;;;4843401;29;20305;-87
2022/10/26 06:33:40;;;;;;;8.80;4.57;;;11.70;99.90;;;;;;4827820;29;20254;-86
2022/10/26 06:36:06;;;;;;;5.30;4.47;;;11.70;99.90;;;;;;4854722;29;20206;-87
2022/10/26 06:38:47;;;;;;;6.90;4.63;;;11.80;99.90;;;;;;4864248;29;20186;-87
2022/10/26 06:41:21;;;;;;;5.47;4.07;;;11.80;99.90;;;;;;4879892;29;20200;-87
2022/10/26 06:43:55;;;;;;;7.40;4.23;;;11.90;99.90;;;;;;4879125;29;20221;-85
2022/10/26 06:46:45;;;;;;;5.87;4.07;;;11.90;99.90;;;;;;4868162;29;20300;-86
2022/10/26 06:49:50;;;;;;;6.77;4.47;;;12.00;99.90;;;;;;4861482;29;20203;-82
2022/10/26 06:53:00;;;;;;;4.50;3.93;;;12.00;99.90;;;;;;4849365;29;20226;-85
2022/10/26 06:55:29;;;;;;;8.77;4.87;;;12.10;99.90;;;;;;4843090;29;20195;-85
2022/10/26 06:57:56;;;;;;;8.17;4.63;;;12.10;99.90;;;;;;4856240;29;20247;-85
2022/10/26 07:00:24;;;;;;;7.63;4.60;;;12.20;99.90;;;;;;4860708;29;20231;-85
2022/10/26 07:02:50;;;;;;;8.53;4.57;;;12.20;99.90;;;;;;4845262;29;20199;-85
2022/10/26 07:05:38;;;;;;;5.47;4.00;;;12.30;99.90;;;;;;4860352;29;20183;-85
2022/10/26 07:08:10;;;;;;;4.27;3.87;;;12.30;99.90;;;;;;4860230;29;20279;-85
2022/10/26 07:10:39;;;;;;;5.23;4.47;;;12.40;99.90;;;;;;4861810;29;20189;-86
2022/10/26 07:13:05;;;;;;;7.47;4.57;;;12.40;99.90;;;;;;4869306;29;20211;-85
2022/10/26 07:15:35;;;;;;;9.97;4.67;;;12.40;99.90;;;;;;4863471;29;20196;-86
2022/10/26 07:18:06;;;;;;;6.50;4.50;;;12.40;99.90;;;;;;4863185;29;20184;-85
2022/10/26 07:20:37;;;;;;;8.47;4.63;;;12.40;99.90;;;;;;4847462;29;20238;-86
2022/10/26 07:23:10;;;;;;;5.23;4.00;;;12.50;99.90;;;;;;4874916;29;20267;-86
2022/10/26 07:25:39;;;;;;;7.47;4.17;;;12.50;99.90;;;;;;4862803;29;20278;-86
2022/10/26 07:28:16;;;;;;;6.97;3.70;;;12.60;99.90;;;;;;4874416;29;20212;-85
2022/10/26 07:30:44;;;;;;;5.33;3.77;;;12.70;99.90;;;;;;4864095;29;20721;-86
2022/10/26 07:33:13;;;;;;;4.33;3.80;;;12.70;99.90;;;;;;4860338;29;20295;-85
2022/10/26 07:35:40;;;;;;;6.63;3.70;;;12.80;99.90;;;;;;4859985;29;20196;-85
2022/10/26 07:38:07;;;;;;;6.00;3.90;;;12.90;99.90;;;;;;4860531;29;20220;-85
2022/10/26 07:40:35;;;;;;;6.77;3.93;;;13.00;99.90;;;;;;4860149;29;20668;-85
2022/10/26 07:43:00;;;;;;;7.10;4.23;;;13.00;99.90;;;;;;4860101;29;20235;-85
2022/10/26 07:45:28;;;;;;;8.93;4.50;;;13.10;99.90;;;;;;4860013;29;20208;-85
2022/10/26 07:47:54;;;;;;;6.13;5.00;;;13.20;99.90;;;;;;4859416;29;20195;-86
2022/10/26 07:50:20;;;;;;;7.17;4.10;;;13.20;99.90;;;;;;4860301;29;20187;-85
2022/10/26 07:52:46;;;;;;;6.93;4.70;;;13.20;99.90;;;;;;4859917;29;20239;-85
2022/10/26 07:55:12;;;;;;;8.13;4.47;;;13.20;99.90;;;;;;4858366;29;20188;-85
2022/10/26 07:57:38;;;;;;;6.33;4.03;;;13.20;99.90;;;;;;4859344;29;20224;-85
2022/10/26 08:00:06;;;;;;;4.63;3.60;;;13.20;99.90;;;;;;4859631;29;20185;-86
2022/10/26 08:02:32;;;;;;;5.33;3.83;;;13.30;99.90;;;;;;4858866;29;20238;-85
2022/10/26 08:04:58;;;;;;;5.17;3.20;;;13.40;99.90;;;;;;4858874;29;20192;-85
2022/10/26 08:07:25;;;;;;;6.10;3.70;;;13.40;99.90;;;;;;4854519;29;20303;-86
2022/10/26 08:09:51;;;;;;;5.60;3.53;;;13.60;99.90;;;;;;4841590;29;20201;-86
2022/10/26 08:12:17;;;;;;;7.53;3.60;;;13.60;99.90;;;;;;4859162;29;20204;-86
2022/10/26 08:14:43;;;;;;;5.53;3.63;;;13.80;99.90;;;;;;4854765;29;20205;-86
2022/10/26 08:17:09;;;;;;;7.07;3.70;;;13.80;99.90;;;;;;4841115;29;20217;-86
2022/10/26 08:19:38;;;;;;;3.37;3.03;;;13.90;99.90;;;;;;4826131;29;20216;-86
2022/10/26 08:22:05;;;;;;;4.97;3.27;;;14.00;99.90;;;;;;4859516;29;20189;-86
2022/10/26 08:24:31;;;;;;;5.10;3.50;;;14.10;99.90;;;;;;4859011;29;20192;-86
2022/10/26 08:26:58;;;;;;;8.90;3.40;;;14.10;99.90;;;;;;4858874;29;20287;-86
2022/10/26 08:29:24;;;;;;;5.97;3.40;;;14.20;99.90;;;;;;4857079;29;20287;-87
2022/10/26 08:31:49;;;;;;;6.40;3.50;;;14.30;99.90;;;;;;4860650;29;20268;-86
2022/10/26 08:34:15;;;;;;;6.93;3.17;;;14.30;99.90;;;;;;4843729;29;20217;-86
2022/10/26 08:36:41;;;;;;;4.47;3.27;;;14.40;99.90;;;;;;4859541;29;20280;-86
2022/10/26 08:39:07;;;;;;;5.47;2.83;;;14.50;99.90;;;;;;4859526;29;20658;-86
2022/10/26 08:41:51;;;;;;;3.73;2.97;;;14.60;99.90;;;;;;4859547;29;20661;-86
2022/10/26 08:44:24;;;;;;;5.07;3.10;;;14.70;99.90;;;;;;4874725;29;20196;-86
2022/10/26 08:46:59;;;;;;;4.00;3.00;;;14.70;99.90;;;;;;4862294;29;20208;-86
2022/10/26 08:49:49;;;;;;;4.47;3.20;;;14.80;99.90;;;;;;4859329;29;20173;-86
2022/10/26 08:52:21;;;;;;;5.90;3.03;;;14.90;99.90;;;;;;4859297;29;20213;-86
2022/10/26 08:54:54;;;;;;;4.87;3.37;;;15.00;99.90;;;;;;4859331;29;20240;-86
2022/10/26 08:57:27;;;;;;;7.40;3.77;;;15.10;99.90;;;;;;4858979;29;20339;-86
2022/10/26 09:00:00;;;;;;;4.50;3.10;;;15.10;99.90;;;;;;4860347;29;20168;-86
2022/10/26 09:02:26;;;;;;;8.47;4.30;;;15.20;99.90;;;;;;4862889;29;20210;-86
2022/10/26 09:04:54;;;;;;;6.83;3.43;;;15.20;99.90;;;;;;4862907;29;20184;-86
2022/10/26 09:07:38;;;;;;;5.37;3.30;;;15.20;99.90;;;;;;4862512;29;20236;-86
2022/10/26 09:10:16;;;;;;;9.00;3.30;;;15.30;99.90;;;;;;4863038;29;20220;-85
2022/10/26 09:12:53;;;;;;;4.97;3.23;;;15.30;99.90;;;;;;4862650;29;20208;-86
2022/10/26 09:15:30;;;;;;;5.77;3.47;;;15.40;99.90;;;;;;4863132;29;20179;-86
2022/10/26 09:17:59;;;;;;;5.27;3.27;;;15.40;99.90;;;;;;4878047;29;20191;-86
2022/10/26 09:20:55;;;;;;;6.37;3.70;;;15.40;99.90;;;;;;4862630;29;20240;-86
2022/10/26 09:23:43;;;;;;;6.20;3.60;;;15.30;99.90;;;;;;4862441;29;20350;-86
2022/10/26 09:26:32;;;;;;;5.47;3.40;;;15.20;99.90;;;;;;4862707;29;20264;-86
2022/10/26 09:29:05;;;;;;;4.90;3.77;;;15.20;99.90;;;;;;4863662;29;20169;-86
2022/10/26 09:31:37;;;;;;;8.07;4.00;;;15.20;99.90;;;;;;4862396;29;20296;-86
2022/10/26 09:34:13;;;;;;;6.10;4.03;;;15.30;99.90;;;;;;4861873;29;20226;-86
2022/10/26 09:36:39;;;;;;;5.77;3.73;;;15.50;99.90;;;;;;4862309;29;20303;-86
2022/10/26 09:39:13;;;;;;;3.70;3.10;;;15.70;99.90;;;;;;4862332;29;20264;-86
2022/10/26 09:41:48;;;;;;;3.83;3.07;;;15.80;99.90;;;;;;4862285;29;20183;-86
2022/10/26 09:44:27;;;;;;;7.35;3.42;;;16.00;99.90;;;;;;4862125;29;20208;-86
2022/10/26 09:46:59;;;;;;;6.93;3.83;;;16.10;99.90;;;;;;4877688;29;20212;-86
2022/10/26 09:49:40;;;;;;;7.27;3.90;;;16.20;99.90;;;;;;4862090;29;20192;-86
2022/10/26 09:52:06;;;;;;;6.17;3.43;;;16.20;99.90;;;;;;4862488;29;20177;-86
2022/10/26 09:54:32;;;;;;;7.47;3.95;;;16.30;99.90;;;;;;4862579;29;20767;-86
2022/10/26 09:57:01;;;;;;;6.43;4.13;;;16.50;99.90;;;;;;4862342;29;20283;-86
2022/10/26 09:59:38;;;;;;;4.85;3.33;;;16.70;99.90;;;;;;4861978;29;20241;-86
2022/10/26 10:02:43;;;;;;;5.20;3.05;;;16.80;99.90;;;;;;4862114;29;20221;-86
2022/10/26 10:05:34;;;;;;;5.22;2.90;;;17.00;99.90;;;;;;4862303;29;20271;-86
2022/10/26 10:08:15;;;;;;;6.10;3.20;;;17.20;99.90;;;;;;4861685;29;20189;-86
2022/10/26 10:11:16;;;;;;;7.97;3.10;;;17.30;99.90;;;;;;4860107;29;20192;-86
2022/10/26 10:13:44;;;;;;;4.43;2.83;;;17.40;99.90;;;;;;4829801;29;20211;-86
2022/10/26 10:16:23;;;;;;;3.03;2.15;;;17.50;99.90;;;;;;4857248;29;20192;-86
2022/10/26 10:18:55;;;;;;;5.72;2.80;;;17.60;99.90;;;;;;4862226;29;20255;-85
2022/10/26 10:21:46;;;;;;;6.55;3.05;;;17.80;99.90;;;;;;4828004;29;20257;-86
2022/10/26 10:24:22;;;;;;;5.95;3.20;;;17.90;99.90;;;;;;4860075;29;20215;-86
2022/10/26 10:27:00;;;;;;;5.70;2.55;;;17.90;99.90;;;;;;4861784;29;20261;-87
2022/10/26 10:29:32;;;;;;;5.70;2.55;;;17.80;99.90;;;;;;4861920;29;20259;-86
2022/10/26 10:32:00;;;;;;;6.70;2.85;;;17.80;99.90;;;;;;4862210;29;20192;-86
2022/10/26 10:34:29;;;;;;;8.82;3.53;;;17.90;99.90;;;;;;4845894;29;20249;-86
2022/10/26 10:36:55;;;;;;;10.18;3.45;;;18.00;99.90;;;;;;4861540;29;20188;-86
2022/10/26 10:39:30;;;;;;;7.40;2.50;;;18.10;99.90;;;;;;4862112;29;20181;-86
2022/10/26 10:41:56;;;;;;;6.88;2.42;;;18.40;99.90;;;;;;4861530;29;20271;-86
2022/10/26 10:44:28;;;;;;;8.75;3.15;;;18.70;99.90;;;;;;4861584;29;20329;-86
2022/10/26 10:47:05;;;;;;;6.25;2.60;;;18.90;99.90;;;;;;4861386;29;20212;-86
2022/10/26 10:49:32;;;;;;;6.55;2.50;;;19.20;99.90;;;;;;4861240;29;20203;-86
2022/10/26 10:51:59;;;;;;;4.93;2.53;;;19.20;99.90;;;;;;4861285;29;20217;-86
2022/10/26 10:54:38;;;;;;;7.75;2.30;;;19.50;99.90;;;;;;4861292;29;20185;-86
2022/10/26 10:57:48;;;;;;;6.63;2.13;;;19.60;99.90;;;;;;4861133;29;20192;-86
2022/10/26 11:00:15;;;;;;;5.82;2.08;;;19.90;99.90;;;;;;4844935;29;20229;-86
2022/10/26 11:03:22;;;;;;;6.78;2.08;;;19.90;99.90;;;;;;4861191;29;20211;-86
2022/10/26 11:05:56;;;;;;;6.90;2.17;;;19.90;99.90;;;;;;4841854;29;20226;-86
2022/10/26 11:08:26;;;;;;;4.97;2.10;;;19.90;99.90;;;;;;4841757;29;20203;-86
2022/10/26 11:11:03;;;;;;;7.15;2.63;;;19.80;99.90;;;;;;4861083;29;20272;-86
2022/10/26 11:13:38;;;;;;;5.05;2.13;;;19.70;99.90;;;;;;4860652;29;20204;-86
2022/10/26 11:16:23;;;;;;;7.80;2.50;;;19.80;99.90;;;;;;4861224;29;20248;-86
2022/10/26 11:19:21;;;;;;;5.55;2.25;;;19.80;99.90;;;;;;4860927;29;20237;-86
2022/10/26 11:21:52;;;;;;;8.65;2.28;;;19.80;99.90;;;;;;4860678;29;20189;-86
2022/10/26 11:24:38;;;;;;;6.35;2.45;;;19.70;99.90;;;;;;4860430;29;20205;-86
2022/10/26 11:27:16;;;;;;;4.72;2.20;;;19.60;99.90;;;;;;4860390;29;20212;-86
2022/10/26 11:29:58;;;;;;;6.30;2.30;;;19.60;99.90;;;;;;4876245;29;20225;-86
2022/10/26 11:32:31;;;;;;;7.10;2.80;;;19.50;99.90;;;;;;4861059;29;20257;-86
2022/10/26 11:35:23;;;;;;;5.93;2.53;;;19.50;99.90;;;;;;4862518;29;20196;-86
2022/10/26 11:37:56;;;;;;;7.47;2.40;;;19.60;99.90;;;;;;4858720;29;20205;-86
2022/10/26 11:40:40;;;;;;;6.82;2.55;;;19.80;99.90;;;;;;4860190;29;20173;-86
2022/10/26 11:43:15;;;;;;;9.38;2.90;;;20.10;99.90;;;;;;4876213;29;20205;-86
2022/10/26 11:46:02;;;;;;;10.05;2.83;;;20.40;99.90;;;;;;4859821;29;20252;-86
2022/10/26 11:48:54;;;;;;;7.72;2.70;;;20.50;99.90;;;;;;4860150;29;20251;-86
2022/10/26 11:51:39;;;;;;;8.23;2.60;;;20.50;99.90;;;;;;4852668;29;20195;-86
2022/10/26 11:54:12;;;;;;;4.05;2.13;;;20.50;99.90;;;;;;4860528;29;20219;-86
2022/10/26 11:56:47;;;;;;;7.90;2.42;;;20.40;99.90;;;;;;4860266;29;20199;-87
2022/10/26 11:59:21;;;;;;;8.50;2.47;;;20.40;99.90;;;;;;4859588;29;20278;-86
2022/10/26 12:01:52;;;;;;;8.07;2.28;;;20.30;99.90;;;;;;4860109;29;20180;-86
2022/10/26 12:04:21;;;;;;;6.18;2.67;;;20.20;99.90;;;;;;4860302;29;20200;-86
2022/10/26 12:06:50;;;;;;;6.18;2.60;;;20.40;99.90;;;;;;4860081;29;20288;-87
2022/10/26 12:09:30;;;;;;;6.55;2.20;;;20.50;99.90;;;;;;4848315;29;20228;-86
2022/10/26 12:12:13;;;;;;;6.20;2.25;;;20.60;99.90;;;;;;4841866;29;20214;-86
2022/10/26 12:14:45;;;;;;;6.38;2.20;;;20.60;99.90;;;;;;4856990;29;20180;-86
2022/10/26 12:17:13;;;;;;;6.03;2.22;;;20.60;99.90;;;;;;4844143;29;20267;-86
2022/10/26 12:19:52;;;;;;;5.90;2.03;;;20.40;99.90;;;;;;4844173;29;20188;-86
2022/10/26 12:22:22;;;;;;;9.27;2.42;;;20.50;99.90;;;;;;4842310;29;20291;-86
2022/10/26 12:25:14;;;;;;;5.63;2.50;;;20.50;99.90;;;;;;4859536;29;20193;-86
2022/10/26 12:27:40;;;;;;;7.50;2.08;;;20.70;99.90;;;;;;4864828;29;20208;-86
2022/10/26 12:30:17;;;;;;;5.28;2.17;;;20.80;99.90;;;;;;4859264;29;20189;-87
2022/10/26 12:32:43;;;;;;;6.93;2.10;;;21.10;99.90;;;;;;4859886;29;20204;-86
2022/10/26 12:35:28;;;;;;;5.93;2.15;;;21.20;99.90;;;;;;4859195;29;20272;-86
2022/10/26 12:37:56;;;;;;;5.07;2.10;;;21.30;99.90;;;;;;4873140;29;20208;-87
2022/10/26 12:40:31;;;;;;;5.93;2.00;;;21.40;99.90;;;;;;4860335;29;20173;-86
2022/10/26 12:43:17;;;;;;;5.38;2.00;;;21.40;99.90;;;;;;4857642;29;20219;-86
2022/10/26 12:46:12;;;;;;;6.53;1.98;;;21.50;99.90;;;;;;4839059;29;20650;-86
2022/10/26 12:48:46;;;;;;;4.53;1.92;;;21.40;99.90;;;;;;4817774;29;20293;-87
2022/10/26 12:51:25;;;;;;;5.30;2.13;;;21.40;99.90;;;;;;4858370;29;20184;-86
2022/10/26 12:54:34;;;;;;;9.52;2.55;;;21.30;99.90;;;;;;4859614;29;20205;-86
2022/10/26 12:57:16;;;;;;;5.95;2.20;;;21.10;99.90;;;;;;4859629;29;20241;-86
2022/10/26 12:59:47;;;;;;;4.68;1.92;;;21.20;99.90;;;;;;4859498;29;20221;-86
2022/10/26 13:03:06;;;;;;;5.20;2.20;;;21.30;99.90;;;;;;4859860;29;20191;-86
2022/10/26 13:05:53;;;;;;;5.97;2.10;;;21.40;99.90;;;;;;4860322;29;20207;-86
2022/10/26 13:08:19;;;;;;;5.47;2.13;;;21.40;99.90;;;;;;4874284;29;20196;-85
2022/10/26 13:11:05;;;;;;;5.50;2.03;;;21.60;99.90;;;;;;4860871;29;20184;-86
2022/10/26 13:13:33;;;;;;;10.63;2.45;;;21.70;99.90;;;;;;4844165;29;20216;-87
2022/10/26 13:16:01;;;;;;;7.15;2.33;;;21.80;99.90;;;;;;4860492;29;20220;-86